sensor_id;sensor_type;location;lat;lon;timestamp;temperature;humidity
78212;SHT31;67490;52.086;5.122;2023-04-24T00:00:16;12.60;77.51
78212;SHT31;67490;52.086;5.122;2023-04-24T00:03:03;12.70;77.50
78212;SHT31;67490;52.086;5.122;2023-04-24T00:05:47;12.64;77.12
78212;SHT31;67490;52.086;5.122;2023-04-24T00:08:32;12.70;77.51
78212;SHT31;67490;52.086;5.122;2023-04-24T00:11:17;12.81;77.44
78212;SHT31;67490;52.086;5.122;2023-04-24T00:14:01;12.88;76.78
78212;SHT31;67490;52.086;5.122;2023-04-24T00:16:46;12.87;76.90
78212;SHT31;67490;52.086;5.122;2023-04-24T00:19:32;12.91;76.68
78212;SHT31;67490;52.086;5.122;2023-04-24T00:22:16;12.97;76.39
78212;SHT31;67490;52.086;5.122;2023-04-24T00:25:01;13.04;76.38
78212;SHT31;67490;52.086;5.122;2023-04-24T00:27:45;13.09;76.39
78212;SHT31;67490;52.086;5.122;2023-04-24T00:30:30;13.14;75.90
78212;SHT31;67490;52.086;5.122;2023-04-24T00:33:15;13.12;76.11
78212;SHT31;67490;52.086;5.122;2023-04-24T00:36:01;13.08;75.81
78212;SHT31;67490;52.086;5.122;2023-04-24T00:38:45;13.11;76.36
78212;SHT31;67490;52.086;5.122;2023-04-24T00:41:30;13.19;76.15
78212;SHT31;67490;52.086;5.122;2023-04-24T00:44:14;13.21;76.11
78212;SHT31;67490;52.086;5.122;2023-04-24T00:46:59;13.16;76.34
78212;SHT31;67490;52.086;5.122;2023-04-24T00:49:44;13.16;75.86
78212;SHT31;67490;52.086;5.122;2023-04-24T00:52:30;13.23;76.01
78212;SHT31;67490;52.086;5.122;2023-04-24T00:55:16;13.25;75.60
78212;SHT31;67490;52.086;5.122;2023-04-24T00:58:01;13.23;75.58
78212;SHT31;67490;52.086;5.122;2023-04-24T01:00:45;13.14;76.25
78212;SHT31;67490;52.086;5.122;2023-04-24T01:03:31;13.19;76.09
78212;SHT31;67490;52.086;5.122;2023-04-24T01:06:15;13.16;75.94
78212;SHT31;67490;52.086;5.122;2023-04-24T01:09:01;13.22;76.27
78212;SHT31;67490;52.086;5.122;2023-04-24T01:11:46;13.19;76.10
78212;SHT31;67490;52.086;5.122;2023-04-24T01:14:31;13.26;76.29
78212;SHT31;67490;52.086;5.122;2023-04-24T01:17:16;13.26;76.21
78212;SHT31;67490;52.086;5.122;2023-04-24T01:20:01;13.29;76.27
78212;SHT31;67490;52.086;5.122;2023-04-24T01:22:49;13.26;76.21
78212;SHT31;67490;52.086;5.122;2023-04-24T01:25:45;13.23;76.35
78212;SHT31;67490;52.086;5.122;2023-04-24T01:28:30;13.19;76.38
78212;SHT31;67490;52.086;5.122;2023-04-24T01:31:14;13.25;77.77
78212;SHT31;67490;52.086;5.122;2023-04-24T01:34:00;13.26;76.10
78212;SHT31;67490;52.086;5.122;2023-04-24T01:36:46;13.25;75.87
78212;SHT31;67490;52.086;5.122;2023-04-24T01:39:31;13.31;75.74
78212;SHT31;67490;52.086;5.122;2023-04-24T01:42:16;13.25;76.25
78212;SHT31;67490;52.086;5.122;2023-04-24T01:45:03;13.34;76.09
78212;SHT31;67490;52.086;5.122;2023-04-24T01:47:49;13.38;75.81
78212;SHT31;67490;52.086;5.122;2023-04-24T01:50:34;13.36;75.50
78212;SHT31;67490;52.086;5.122;2023-04-24T01:53:18;13.34;75.88
78212;SHT31;67490;52.086;5.122;2023-04-24T01:56:03;13.42;75.62
78212;SHT31;67490;52.086;5.122;2023-04-24T01:58:52;13.36;75.76
78212;SHT31;67490;52.086;5.122;2023-04-24T02:01:38;13.36;75.34
78212;SHT31;67490;52.086;5.122;2023-04-24T02:04:23;13.48;75.33
78212;SHT31;67490;52.086;5.122;2023-04-24T02:07:08;13.55;75.06
78212;SHT31;67490;52.086;5.122;2023-04-24T02:09:52;13.55;74.53
78212;SHT31;67490;52.086;5.122;2023-04-24T02:12:36;13.56;75.03
78212;SHT31;67490;52.086;5.122;2023-04-24T02:15:22;13.55;74.54
78212;SHT31;67490;52.086;5.122;2023-04-24T02:18:06;13.63;74.33
78212;SHT31;67490;52.086;5.122;2023-04-24T02:20:51;13.59;74.15
78212;SHT31;67490;52.086;5.122;2023-04-24T02:23:35;13.58;73.84
78212;SHT31;67490;52.086;5.122;2023-04-24T02:26:20;13.60;74.40
78212;SHT31;67490;52.086;5.122;2023-04-24T02:29:04;13.58;74.57
78212;SHT31;67490;52.086;5.122;2023-04-24T02:31:50;13.52;74.67
78212;SHT31;67490;52.086;5.122;2023-04-24T02:34:35;13.53;74.62
78212;SHT31;67490;52.086;5.122;2023-04-24T02:37:19;13.45;74.41
78212;SHT31;67490;52.086;5.122;2023-04-24T02:40:05;13.45;74.72
78212;SHT31;67490;52.086;5.122;2023-04-24T02:42:50;13.50;74.99
78212;SHT31;67490;52.086;5.122;2023-04-24T02:45:34;13.52;75.04
78212;SHT31;67490;52.086;5.122;2023-04-24T02:48:20;13.59;75.04
78212;SHT31;67490;52.086;5.122;2023-04-24T02:51:05;13.67;75.02
78212;SHT31;67490;52.086;5.122;2023-04-24T02:53:50;13.70;73.83
78212;SHT31;67490;52.086;5.122;2023-04-24T02:56:34;13.56;74.19
78212;SHT31;67490;52.086;5.122;2023-04-24T02:59:19;13.67;74.87
78212;SHT31;67490;52.086;5.122;2023-04-24T03:02:04;13.81;73.89
78212;SHT31;67490;52.086;5.122;2023-04-24T03:04:50;13.87;73.93
78212;SHT31;67490;52.086;5.122;2023-04-24T03:07:34;13.86;73.51
78212;SHT31;67490;52.086;5.122;2023-04-24T03:10:19;13.74;74.26
78212;SHT31;67490;52.086;5.122;2023-04-24T03:13:03;13.77;74.27
78212;SHT31;67490;52.086;5.122;2023-04-24T03:15:48;13.69;74.16
78212;SHT31;67490;52.086;5.122;2023-04-24T03:18:32;13.62;73.70
78212;SHT31;67490;52.086;5.122;2023-04-24T03:21:18;13.48;73.74
78212;SHT31;67490;52.086;5.122;2023-04-24T03:24:03;13.43;74.43
78212;SHT31;67490;52.086;5.122;2023-04-24T03:26:47;13.42;74.70
78212;SHT31;67490;52.086;5.122;2023-04-24T03:29:32;13.46;74.88
78212;SHT31;67490;52.086;5.122;2023-04-24T03:32:16;13.50;75.42
78212;SHT31;67490;52.086;5.122;2023-04-24T03:35:01;13.49;74.11
78212;SHT31;67490;52.086;5.122;2023-04-24T03:37:46;13.45;74.74
78212;SHT31;67490;52.086;5.122;2023-04-24T03:40:31;13.49;74.39
78212;SHT31;67490;52.086;5.122;2023-04-24T03:43:17;13.49;74.47
78212;SHT31;67490;52.086;5.122;2023-04-24T03:46:01;13.59;74.44
78212;SHT31;67490;52.086;5.122;2023-04-24T03:48:46;13.65;74.13
78212;SHT31;67490;52.086;5.122;2023-04-24T03:51:31;13.63;74.14
78212;SHT31;67490;52.086;5.122;2023-04-24T03:54:16;13.55;74.67
78212;SHT31;67490;52.086;5.122;2023-04-24T03:57:01;13.58;74.28
78212;SHT31;67490;52.086;5.122;2023-04-24T03:59:46;13.73;74.36
78212;SHT31;67490;52.086;5.122;2023-04-24T04:02:30;13.71;74.47
78212;SHT31;67490;52.086;5.122;2023-04-24T04:05:15;13.74;74.77
78212;SHT31;67490;52.086;5.122;2023-04-24T04:07:59;13.86;73.81
78212;SHT31;67490;52.086;5.122;2023-04-24T04:10:45;13.87;73.83
78212;SHT31;67490;52.086;5.122;2023-04-24T04:13:30;13.79;74.82
78212;SHT31;67490;52.086;5.122;2023-04-24T04:16:15;13.84;74.64
78212;SHT31;67490;52.086;5.122;2023-04-24T04:19:02;13.89;74.36
78212;SHT31;67490;52.086;5.122;2023-04-24T04:21:47;13.87;74.16
78212;SHT31;67490;52.086;5.122;2023-04-24T04:24:36;13.90;74.23
78212;SHT31;67490;52.086;5.122;2023-04-24T04:27:23;13.90;74.33
78212;SHT31;67490;52.086;5.122;2023-04-24T04:30:08;13.93;74.25
78212;SHT31;67490;52.086;5.122;2023-04-24T04:32:53;13.98;74.54
78212;SHT31;67490;52.086;5.122;2023-04-24T04:35:38;14.03;74.11
78212;SHT31;67490;52.086;5.122;2023-04-24T04:38:23;13.98;74.45
78212;SHT31;67490;52.086;5.122;2023-04-24T04:41:07;14.11;72.94
78212;SHT31;67490;52.086;5.122;2023-04-24T04:43:53;14.06;73.32
78212;SHT31;67490;52.086;5.122;2023-04-24T04:46:37;14.14;72.47
78212;SHT31;67490;52.086;5.122;2023-04-24T04:49:22;14.06;73.05
78212;SHT31;67490;52.086;5.122;2023-04-24T04:52:08;14.03;73.98
78212;SHT31;67490;52.086;5.122;2023-04-24T04:54:53;13.96;74.05
78212;SHT31;67490;52.086;5.122;2023-04-24T04:57:37;13.94;73.33
78212;SHT31;67490;52.086;5.122;2023-04-24T05:00:23;13.93;73.82
78212;SHT31;67490;52.086;5.122;2023-04-24T05:03:11;13.93;73.95
78212;SHT31;67490;52.086;5.122;2023-04-24T05:05:55;13.89;72.16
78212;SHT31;67490;52.086;5.122;2023-04-24T05:08:41;13.74;71.84
78212;SHT31;67490;52.086;5.122;2023-04-24T05:11:26;13.71;72.64
78212;SHT31;67490;52.086;5.122;2023-04-24T05:14:10;13.71;72.63
78212;SHT31;67490;52.086;5.122;2023-04-24T05:16:56;13.67;72.26
78212;SHT31;67490;52.086;5.122;2023-04-24T05:19:40;13.60;71.97
78212;SHT31;67490;52.086;5.122;2023-04-24T05:22:25;13.43;73.18
78212;SHT31;67490;52.086;5.122;2023-04-24T05:25:09;13.42;73.33
78212;SHT31;67490;52.086;5.122;2023-04-24T05:27:54;13.55;72.92
78212;SHT31;67490;52.086;5.122;2023-04-24T05:30:38;13.55;72.78
78212;SHT31;67490;52.086;5.122;2023-04-24T05:33:24;13.52;72.56
78212;SHT31;67490;52.086;5.122;2023-04-24T05:36:09;13.50;72.57
78212;SHT31;67490;52.086;5.122;2023-04-24T05:38:54;13.55;73.46
78212;SHT31;67490;52.086;5.122;2023-04-24T05:41:38;13.56;72.86
78212;SHT31;67490;52.086;5.122;2023-04-24T05:44:23;13.56;73.66
78212;SHT31;67490;52.086;5.122;2023-04-24T05:47:07;13.67;73.07
78212;SHT31;67490;52.086;5.122;2023-04-24T05:49:53;13.63;73.17
78212;SHT31;67490;52.086;5.122;2023-04-24T05:52:38;13.53;73.88
78212;SHT31;67490;52.086;5.122;2023-04-24T05:55:22;13.48;74.13
78212;SHT31;67490;52.086;5.122;2023-04-24T05:58:07;13.48;74.13
78212;SHT31;67490;52.086;5.122;2023-04-24T06:00:52;13.39;74.25
78212;SHT31;67490;52.086;5.122;2023-04-24T06:03:37;13.29;74.31
78212;SHT31;67490;52.086;5.122;2023-04-24T06:06:24;13.25;74.73
78212;SHT31;67490;52.086;5.122;2023-04-24T06:09:08;13.05;74.78
78212;SHT31;67490;52.086;5.122;2023-04-24T06:11:53;12.88;75.50
78212;SHT31;67490;52.086;5.122;2023-04-24T06:14:37;12.77;75.56
78212;SHT31;67490;52.086;5.122;2023-04-24T06:17:22;12.67;75.93
78212;SHT31;67490;52.086;5.122;2023-04-24T06:20:07;12.64;75.99
78212;SHT31;67490;52.086;5.122;2023-04-24T06:22:53;12.43;75.76
78212;SHT31;67490;52.086;5.122;2023-04-24T06:25:38;12.34;76.00
78212;SHT31;67490;52.086;5.122;2023-04-24T06:28:23;12.40;76.03
78212;SHT31;67490;52.086;5.122;2023-04-24T06:31:07;12.49;76.36
78212;SHT31;67490;52.086;5.122;2023-04-24T06:33:52;12.39;76.49
78212;SHT31;67490;52.086;5.122;2023-04-24T06:36:36;12.43;76.71
78212;SHT31;67490;52.086;5.122;2023-04-24T06:39:22;12.42;76.04
78212;SHT31;67490;52.086;5.122;2023-04-24T06:42:06;12.30;76.25
78212;SHT31;67490;52.086;5.122;2023-04-24T06:44:53;12.44;75.37
78212;SHT31;67490;52.086;5.122;2023-04-24T06:47:38;12.28;75.14
78212;SHT31;67490;52.086;5.122;2023-04-24T06:50:22;12.11;74.64
78212;SHT31;67490;52.086;5.122;2023-04-24T06:53:07;12.22;76.49
78212;SHT31;67490;52.086;5.122;2023-04-24T06:55:53;12.37;76.00
78212;SHT31;67490;52.086;5.122;2023-04-24T06:58:37;12.51;74.62
78212;SHT31;67490;52.086;5.122;2023-04-24T07:01:22;12.43;74.04
78212;SHT31;67490;52.086;5.122;2023-04-24T07:04:06;12.42;74.79
78212;SHT31;67490;52.086;5.122;2023-04-24T07:06:51;12.49;75.05
78212;SHT31;67490;52.086;5.122;2023-04-24T07:09:35;12.47;74.28
78212;SHT31;67490;52.086;5.122;2023-04-24T07:12:24;12.53;74.20
78212;SHT31;67490;52.086;5.122;2023-04-24T07:15:09;12.57;75.03
78212;SHT31;67490;52.086;5.122;2023-04-24T07:17:54;12.51;73.66
78212;SHT31;67490;52.086;5.122;2023-04-24T07:20:39;12.47;74.71
78212;SHT31;67490;52.086;5.122;2023-04-24T07:23:24;12.51;74.56
78212;SHT31;67490;52.086;5.122;2023-04-24T07:26:08;12.39;74.78
78212;SHT31;67490;52.086;5.122;2023-04-24T07:28:55;12.15;75.24
78212;SHT31;67490;52.086;5.122;2023-04-24T07:31:39;12.15;74.96
78212;SHT31;67490;52.086;5.122;2023-04-24T07:34:25;12.12;75.65
78212;SHT31;67490;52.086;5.122;2023-04-24T07:37:10;12.26;75.23
78212;SHT31;67490;52.086;5.122;2023-04-24T07:39:55;12.30;74.13
78212;SHT31;67490;52.086;5.122;2023-04-24T07:42:39;12.43;75.05
78212;SHT31;67490;52.086;5.122;2023-04-24T07:45:25;12.47;73.69
78212;SHT31;67490;52.086;5.122;2023-04-24T07:48:12;12.44;74.44
78212;SHT31;67490;52.086;5.122;2023-04-24T07:50:58;12.56;74.05
78212;SHT31;67490;52.086;5.122;2023-04-24T07:53:43;12.44;75.66
78212;SHT31;67490;52.086;5.122;2023-04-24T07:56:28;12.49;73.77
78212;SHT31;67490;52.086;5.122;2023-04-24T07:59:15;12.37;73.14
78212;SHT31;67490;52.086;5.122;2023-04-24T08:02:01;12.34;73.30
78212;SHT31;67490;52.086;5.122;2023-04-24T08:04:45;12.46;73.48
78212;SHT31;67490;52.086;5.122;2023-04-24T08:07:31;12.47;73.03
78212;SHT31;67490;52.086;5.122;2023-04-24T08:10:15;12.43;71.51
78212;SHT31;67490;52.086;5.122;2023-04-24T08:13:00;12.49;71.86
78212;SHT31;67490;52.086;5.122;2023-04-24T08:15:45;12.42;72.58
78212;SHT31;67490;52.086;5.122;2023-04-24T08:18:31;12.36;72.65
78212;SHT31;67490;52.086;5.122;2023-04-24T08:21:15;12.34;72.20
78212;SHT31;67490;52.086;5.122;2023-04-24T08:24:02;12.44;71.81
78212;SHT31;67490;52.086;5.122;2023-04-24T08:26:49;12.42;71.22
78212;SHT31;67490;52.086;5.122;2023-04-24T08:29:38;12.28;69.40
78212;SHT31;67490;52.086;5.122;2023-04-24T08:32:22;12.13;69.53
78212;SHT31;67490;52.086;5.122;2023-04-24T08:35:09;12.08;68.42
78212;SHT31;67490;52.086;5.122;2023-04-24T08:37:53;12.15;69.36
78212;SHT31;67490;52.086;5.122;2023-04-24T08:40:38;12.25;69.93
78212;SHT31;67490;52.086;5.122;2023-04-24T08:43:23;12.36;70.34
78212;SHT31;67490;52.086;5.122;2023-04-24T08:46:09;12.32;69.29
78212;SHT31;67490;52.086;5.122;2023-04-24T08:48:55;12.30;70.09
78212;SHT31;67490;52.086;5.122;2023-04-24T08:51:42;12.42;69.25
78212;SHT31;67490;52.086;5.122;2023-04-24T08:54:26;12.47;69.42
78212;SHT31;67490;52.086;5.122;2023-04-24T08:57:14;12.36;68.19
78212;SHT31;67490;52.086;5.122;2023-04-24T08:59:59;12.29;69.48
78212;SHT31;67490;52.086;5.122;2023-04-24T09:02:47;12.36;69.01
78212;SHT31;67490;52.086;5.122;2023-04-24T09:05:33;12.50;69.94
78212;SHT31;67490;52.086;5.122;2023-04-24T09:08:19;12.49;68.54
78212;SHT31;67490;52.086;5.122;2023-04-24T09:11:04;12.47;67.00
78212;SHT31;67490;52.086;5.122;2023-04-24T09:13:49;12.44;66.28
78212;SHT31;67490;52.086;5.122;2023-04-24T09:16:34;12.51;66.84
78212;SHT31;67490;52.086;5.122;2023-04-24T09:19:18;12.53;65.35
78212;SHT31;67490;52.086;5.122;2023-04-24T09:22:05;12.60;66.16
78212;SHT31;67490;52.086;5.122;2023-04-24T09:25:03;12.76;66.72
78212;SHT31;67490;52.086;5.122;2023-04-24T09:27:53;12.83;65.28
78212;SHT31;67490;52.086;5.122;2023-04-24T09:30:38;12.87;64.70
78212;SHT31;67490;52.086;5.122;2023-04-24T09:33:23;12.85;66.57
78212;SHT31;67490;52.086;5.122;2023-04-24T09:36:08;12.95;64.69
78212;SHT31;67490;52.086;5.122;2023-04-24T09:38:58;12.92;64.15
78212;SHT31;67490;52.086;5.122;2023-04-24T09:41:48;12.92;63.50
78212;SHT31;67490;52.086;5.122;2023-04-24T09:44:34;13.05;62.49
78212;SHT31;67490;52.086;5.122;2023-04-24T09:47:18;13.14;63.92
78212;SHT31;67490;52.086;5.122;2023-04-24T09:50:09;13.00;61.90
78212;SHT31;67490;52.086;5.122;2023-04-24T09:52:59;12.95;63.32
78212;SHT31;67490;52.086;5.122;2023-04-24T09:55:45;12.77;64.17
78212;SHT31;67490;52.086;5.122;2023-04-24T09:58:37;12.87;65.07
78212;SHT31;67490;52.086;5.122;2023-04-24T10:01:30;12.84;63.98
78212;SHT31;67490;52.086;5.122;2023-04-24T10:04:16;12.71;64.11
78212;SHT31;67490;52.086;5.122;2023-04-24T10:07:03;12.57;64.69
78212;SHT31;67490;52.086;5.122;2023-04-24T10:09:50;12.54;64.84
78212;SHT31;67490;52.086;5.122;2023-04-24T10:12:36;12.60;65.58
78212;SHT31;67490;52.086;5.122;2023-04-24T10:15:22;12.79;65.00
78212;SHT31;67490;52.086;5.122;2023-04-24T10:18:07;13.01;64.76
78212;SHT31;67490;52.086;5.122;2023-04-24T10:20:53;13.05;63.20
78212;SHT31;67490;52.086;5.122;2023-04-24T10:23:39;13.11;63.02
78212;SHT31;67490;52.086;5.122;2023-04-24T10:26:26;13.01;62.12
78212;SHT31;67490;52.086;5.122;2023-04-24T10:29:13;13.04;63.79
78212;SHT31;67490;52.086;5.122;2023-04-24T10:32:00;12.87;63.57
78212;SHT31;67490;52.086;5.122;2023-04-24T10:34:45;12.84;64.74
78212;SHT31;67490;52.086;5.122;2023-04-24T10:37:37;12.95;65.52
78212;SHT31;67490;52.086;5.122;2023-04-24T10:40:26;13.04;64.86
78212;SHT31;67490;52.086;5.122;2023-04-24T10:43:17;13.19;63.37
78212;SHT31;67490;52.086;5.122;2023-04-24T10:46:03;13.48;64.15
78212;SHT31;67490;52.086;5.122;2023-04-24T10:48:54;13.73;63.09
78212;SHT31;67490;52.086;5.122;2023-04-24T10:51:47;14.10;63.19
78212;SHT31;67490;52.086;5.122;2023-04-24T10:54:35;14.14;62.28
78212;SHT31;67490;52.086;5.122;2023-04-24T10:57:28;14.06;62.18
78212;SHT31;67490;52.086;5.122;2023-04-24T11:00:16;13.84;61.31
78212;SHT31;67490;52.086;5.122;2023-04-24T11:03:04;13.86;62.54
78212;SHT31;67490;52.086;5.122;2023-04-24T11:05:53;13.59;61.30
78212;SHT31;67490;52.086;5.122;2023-04-24T11:08:39;13.16;62.42
78212;SHT31;67490;52.086;5.122;2023-04-24T11:11:29;12.97;65.92
78212;SHT31;67490;52.086;5.122;2023-04-24T11:14:15;13.12;63.41
78212;SHT31;67490;52.086;5.122;2023-04-24T11:16:59;13.36;65.08
78212;SHT31;67490;52.086;5.122;2023-04-24T11:19:50;13.23;65.59
78212;SHT31;67490;52.086;5.122;2023-04-24T11:22:38;12.92;65.87
78212;SHT31;67490;52.086;5.122;2023-04-24T11:25:30;12.95;66.26
78212;SHT31;67490;52.086;5.122;2023-04-24T11:28:15;12.97;64.98
78212;SHT31;67490;52.086;5.122;2023-04-24T11:31:39;13.16;63.64
78212;SHT31;67490;52.086;5.122;2023-04-24T11:34:25;13.34;61.42
78212;SHT31;67490;52.086;5.122;2023-04-24T11:37:09;13.56;61.19
78212;SHT31;67490;52.086;5.122;2023-04-24T11:39:57;13.70;60.51
78212;SHT31;67490;52.086;5.122;2023-04-24T11:42:45;13.73;59.70
78212;SHT31;67490;52.086;5.122;2023-04-24T11:45:31;13.65;59.18
78212;SHT31;67490;52.086;5.122;2023-04-24T11:48:18;13.86;60.74
78212;SHT31;67490;52.086;5.122;2023-04-24T11:51:03;13.98;60.72
78212;SHT31;67490;52.086;5.122;2023-04-24T11:53:48;14.01;60.28
78212;SHT31;67490;52.086;5.122;2023-04-24T11:56:34;14.00;60.18
78212;SHT31;67490;52.086;5.122;2023-04-24T11:59:18;13.98;60.97
78212;SHT31;67490;52.086;5.122;2023-04-24T12:02:03;13.96;60.24
78212;SHT31;67490;52.086;5.122;2023-04-24T12:04:48;13.96;59.86
78212;SHT31;67490;52.086;5.122;2023-04-24T12:07:40;14.13;60.19
78212;SHT31;67490;52.086;5.122;2023-04-24T12:10:29;14.17;58.48
78212;SHT31;67490;52.086;5.122;2023-04-24T12:13:15;13.97;58.46
78212;SHT31;67490;52.086;5.122;2023-04-24T12:16:00;14.16;59.43
78212;SHT31;67490;52.086;5.122;2023-04-24T12:18:45;14.37;60.97
78212;SHT31;67490;52.086;5.122;2023-04-24T12:21:30;14.38;57.49
78212;SHT31;67490;52.086;5.122;2023-04-24T12:24:16;14.16;58.58
78212;SHT31;67490;52.086;5.122;2023-04-24T12:27:00;14.08;58.67
78212;SHT31;67490;52.086;5.122;2023-04-24T12:29:52;13.87;60.25
78212;SHT31;67490;52.086;5.122;2023-04-24T12:32:41;13.87;59.38
78212;SHT31;67490;52.086;5.122;2023-04-24T12:35:29;13.89;59.27
78212;SHT31;67490;52.086;5.122;2023-04-24T12:38:15;13.73;58.83
78212;SHT31;67490;52.086;5.122;2023-04-24T12:41:04;13.63;58.44
78212;SHT31;67490;52.086;5.122;2023-04-24T12:43:53;13.48;57.70
78212;SHT31;67490;52.086;5.122;2023-04-24T12:46:39;13.16;57.61
78212;SHT31;67490;52.086;5.122;2023-04-24T12:49:23;13.23;58.61
78212;SHT31;67490;52.086;5.122;2023-04-24T12:52:07;13.42;58.50
78212;SHT31;67490;52.086;5.122;2023-04-24T12:54:53;13.22;57.98
78212;SHT31;67490;52.086;5.122;2023-04-24T12:57:39;13.01;58.79
78212;SHT31;67490;52.086;5.122;2023-04-24T13:00:23;12.76;59.60
78212;SHT31;67490;52.086;5.122;2023-04-24T13:03:09;12.80;60.14
78212;SHT31;67490;52.086;5.122;2023-04-24T13:05:54;13.00;60.58
78212;SHT31;67490;52.086;5.122;2023-04-24T13:08:38;13.25;59.31
78212;SHT31;67490;52.086;5.122;2023-04-24T13:11:23;13.39;59.06
78212;SHT31;67490;52.086;5.122;2023-04-24T13:14:08;13.52;58.94
78212;SHT31;67490;52.086;5.122;2023-04-24T13:16:52;13.63;59.23
78212;SHT31;67490;52.086;5.122;2023-04-24T13:19:39;13.77;57.53
78212;SHT31;67490;52.086;5.122;2023-04-24T13:22:23;13.73;54.93
78212;SHT31;67490;52.086;5.122;2023-04-24T13:25:08;13.80;55.00
78212;SHT31;67490;52.086;5.122;2023-04-24T13:27:53;13.71;55.16
78212;SHT31;67490;52.086;5.122;2023-04-24T13:30:37;13.55;56.50
78212;SHT31;67490;52.086;5.122;2023-04-24T13:33:22;13.53;57.42
78212;SHT31;67490;52.086;5.122;2023-04-24T13:36:07;13.74;56.84
78212;SHT31;67490;52.086;5.122;2023-04-24T13:38:52;14.10;56.60
78212;SHT31;67490;52.086;5.122;2023-04-24T13:41:37;14.37;54.37
78212;SHT31;67490;52.086;5.122;2023-04-24T13:44:22;14.38;54.47
78212;SHT31;67490;52.086;5.122;2023-04-24T13:47:07;14.17;54.17
78212;SHT31;67490;52.086;5.122;2023-04-24T13:49:52;14.01;51.94
78212;SHT31;67490;52.086;5.122;2023-04-24T13:52:39;14.03;53.92
78212;SHT31;67490;52.086;5.122;2023-04-24T13:55:24;14.04;52.68
78212;SHT31;67490;52.086;5.122;2023-04-24T13:58:10;14.01;53.48
78212;SHT31;67490;52.086;5.122;2023-04-24T14:00:55;13.98;53.86
78212;SHT31;67490;52.086;5.122;2023-04-24T14:03:39;13.91;53.68
78212;SHT31;67490;52.086;5.122;2023-04-24T14:06:23;13.97;54.11
78212;SHT31;67490;52.086;5.122;2023-04-24T14:09:09;13.98;56.24
78212;SHT31;67490;52.086;5.122;2023-04-24T14:11:53;13.79;55.75
78212;SHT31;67490;52.086;5.122;2023-04-24T14:14:38;13.86;55.11
78212;SHT31;67490;52.086;5.122;2023-04-24T14:17:22;13.49;55.43
78212;SHT31;67490;52.086;5.122;2023-04-24T14:20:07;13.42;55.61
78212;SHT31;67490;52.086;5.122;2023-04-24T14:22:53;13.60;55.43
78212;SHT31;67490;52.086;5.122;2023-04-24T14:25:39;13.46;55.28
78212;SHT31;67490;52.086;5.122;2023-04-24T14:28:24;13.62;54.55
78212;SHT31;67490;52.086;5.122;2023-04-24T14:31:09;13.90;55.10
78212;SHT31;67490;52.086;5.122;2023-04-24T14:33:54;14.10;56.22
78212;SHT31;67490;52.086;5.122;2023-04-24T14:36:38;14.10;56.34
78212;SHT31;67490;52.086;5.122;2023-04-24T14:39:23;13.73;57.59
78212;SHT31;67490;52.086;5.122;2023-04-24T14:42:09;13.65;58.86
78212;SHT31;67490;52.086;5.122;2023-04-24T14:44:53;13.56;58.12
78212;SHT31;67490;52.086;5.122;2023-04-24T14:47:38;13.38;57.71
78212;SHT31;67490;52.086;5.122;2023-04-24T14:50:23;13.25;57.22
78212;SHT31;67490;52.086;5.122;2023-04-24T14:53:07;13.43;56.89
78212;SHT31;67490;52.086;5.122;2023-04-24T14:55:53;13.59;54.56
78212;SHT31;67490;52.086;5.122;2023-04-24T14:58:39;13.76;54.78
78212;SHT31;67490;52.086;5.122;2023-04-24T15:01:24;13.89;53.97
78212;SHT31;67490;52.086;5.122;2023-04-24T15:04:08;13.91;55.37
78212;SHT31;67490;52.086;5.122;2023-04-24T15:06:54;13.97;54.54
78212;SHT31;67490;52.086;5.122;2023-04-24T15:09:39;14.04;54.96
78212;SHT31;67490;52.086;5.122;2023-04-24T15:12:24;13.65;55.53
78212;SHT31;67490;52.086;5.122;2023-04-24T15:15:10;13.50;56.48
78212;SHT31;67490;52.086;5.122;2023-04-24T15:17:54;13.35;57.44
78212;SHT31;67490;52.086;5.122;2023-04-24T15:20:39;13.28;56.43
78212;SHT31;67490;52.086;5.122;2023-04-24T15:23:25;13.29;56.10
78212;SHT31;67490;52.086;5.122;2023-04-24T15:26:09;13.35;54.53
78212;SHT31;67490;52.086;5.122;2023-04-24T15:28:53;13.19;53.95
78212;SHT31;67490;52.086;5.122;2023-04-24T15:31:39;13.05;55.91
78212;SHT31;67490;52.086;5.122;2023-04-24T15:34:24;12.92;55.62
78212;SHT31;67490;52.086;5.122;2023-04-24T15:37:09;12.92;54.83
78212;SHT31;67490;52.086;5.122;2023-04-24T15:39:53;13.09;55.05
78212;SHT31;67490;52.086;5.122;2023-04-24T15:42:38;13.22;54.97
78212;SHT31;67490;52.086;5.122;2023-04-24T15:45:22;13.34;54.61
78212;SHT31;67490;52.086;5.122;2023-04-24T15:48:08;13.29;54.64
78212;SHT31;67490;52.086;5.122;2023-04-24T15:50:53;13.32;55.66
78212;SHT31;67490;52.086;5.122;2023-04-24T15:53:38;13.28;55.31
78212;SHT31;67490;52.086;5.122;2023-04-24T15:56:22;13.36;55.18
78212;SHT31;67490;52.086;5.122;2023-04-24T15:59:07;13.49;54.55
78212;SHT31;67490;52.086;5.122;2023-04-24T16:01:51;13.49;55.45
78212;SHT31;67490;52.086;5.122;2023-04-24T16:04:37;13.45;55.15
78212;SHT31;67490;52.086;5.122;2023-04-24T16:07:21;13.50;55.59
78212;SHT31;67490;52.086;5.122;2023-04-24T16:10:06;13.45;54.11
78212;SHT31;67490;52.086;5.122;2023-04-24T16:12:51;13.34;54.40
78212;SHT31;67490;52.086;5.122;2023-04-24T16:15:36;13.21;54.35
78212;SHT31;67490;52.086;5.122;2023-04-24T16:18:20;13.08;54.03
78212;SHT31;67490;52.086;5.122;2023-04-24T16:21:07;13.00;55.22
78212;SHT31;67490;52.086;5.122;2023-04-24T16:23:52;13.05;55.40
78212;SHT31;67490;52.086;5.122;2023-04-24T16:26:36;13.15;55.09
78212;SHT31;67490;52.086;5.122;2023-04-24T16:29:21;13.16;54.53
78212;SHT31;67490;52.086;5.122;2023-04-24T16:32:05;13.25;54.39
78212;SHT31;67490;52.086;5.122;2023-04-24T16:34:50;13.21;53.45
78212;SHT31;67490;52.086;5.122;2023-04-24T16:37:37;13.12;53.05
78212;SHT31;67490;52.086;5.122;2023-04-24T16:40:22;13.11;53.94
78212;SHT31;67490;52.086;5.122;2023-04-24T16:43:06;13.12;54.43
78212;SHT31;67490;52.086;5.122;2023-04-24T16:45:51;13.15;55.72
78212;SHT31;67490;52.086;5.122;2023-04-24T16:48:35;13.15;55.38
78212;SHT31;67490;52.086;5.122;2023-04-24T16:51:20;13.15;55.81
78212;SHT31;67490;52.086;5.122;2023-04-24T16:54:06;13.08;55.96
78212;SHT31;67490;52.086;5.122;2023-04-24T16:56:51;13.05;56.84
78212;SHT31;67490;52.086;5.122;2023-04-24T16:59:36;13.02;57.80
78212;SHT31;67490;52.086;5.122;2023-04-24T17:02:21;12.94;57.23
78212;SHT31;67490;52.086;5.122;2023-04-24T17:05:06;12.87;57.85
78212;SHT31;67490;52.086;5.122;2023-04-24T17:07:51;12.79;58.37
78212;SHT31;67490;52.086;5.122;2023-04-24T17:10:36;12.85;58.46
78212;SHT31;67490;52.086;5.122;2023-04-24T17:13:21;12.97;58.15
78212;SHT31;67490;52.086;5.122;2023-04-24T17:16:06;12.98;57.51
78212;SHT31;67490;52.086;5.122;2023-04-24T17:18:50;12.83;57.33
78212;SHT31;67490;52.086;5.122;2023-04-24T17:21:35;12.84;57.61
78212;SHT31;67490;52.086;5.122;2023-04-24T17:24:19;12.63;57.68